Van Cott, New York
Current Conditions -  °F | °C
As of 5:51 AM on Friday 19 Dec 2014 (Local Time) from KLGA Reporting Station
Overcast Overcast  
Wind Chill: 28°   Ceiling: 3600
Heat Index: 37°   Visibility: 10mi
Dew Point: 24°   Wind: 15mph
Humidity: 59%   Direction: 310°NW
Pressure: 29.98"   Gusts: 23mph
Location:  40.8778°N, 73.8721°W
Report Text: KLGA 191051Z 31013G20KT 10SM OVC036 03/M04 A2998 RMK AO2 SLP153 T00281044
Loading
Personal Weather Stations






























Interactive Weather Map New forecast layout! Learn more

10-Day Weather Forecast

Advertisements
Track Severe Weather on mobile